sensor_id;sensor_type;location;lat;lon;timestamp;temperature;humidity
59977;DHT22;45837;51.076;3.578;2023-08-20T00:01:49;24.70;59.20
59977;DHT22;45837;51.076;3.578;2023-08-20T00:04:18;24.70;59.10
59977;DHT22;45837;51.076;3.578;2023-08-20T00:06:44;24.70;59.20
59977;DHT22;45837;51.076;3.578;2023-08-20T00:09:11;24.70;59.60
59977;DHT22;45837;51.076;3.578;2023-08-20T00:11:37;24.70;60.00
59977;DHT22;45837;51.076;3.578;2023-08-20T00:14:03;24.70;60.00
59977;DHT22;45837;51.076;3.578;2023-08-20T00:16:28;24.70;59.70
59977;DHT22;45837;51.076;3.578;2023-08-20T00:18:54;24.70;59.70
59977;DHT22;45837;51.076;3.578;2023-08-20T00:21:20;24.70;59.80
59977;DHT22;45837;51.076;3.578;2023-08-20T00:23:46;24.70;60.00
59977;DHT22;45837;51.076;3.578;2023-08-20T00:26:12;24.70;59.80
59977;DHT22;45837;51.076;3.578;2023-08-20T00:28:38;24.70;59.80
59977;DHT22;45837;51.076;3.578;2023-08-20T00:31:04;24.70;60.10
59977;DHT22;45837;51.076;3.578;2023-08-20T00:33:31;24.70;59.90
59977;DHT22;45837;51.076;3.578;2023-08-20T00:35:56;24.70;59.70
59977;DHT22;45837;51.076;3.578;2023-08-20T00:38:22;24.70;60.30
59977;DHT22;45837;51.076;3.578;2023-08-20T00:40:48;24.70;60.10
59977;DHT22;45837;51.076;3.578;2023-08-20T00:43:14;24.70;60.40
59977;DHT22;45837;51.076;3.578;2023-08-20T00:45:40;24.70;60.30
59977;DHT22;45837;51.076;3.578;2023-08-20T00:48:06;24.70;59.80
59977;DHT22;45837;51.076;3.578;2023-08-20T00:50:32;24.60;60.00
59977;DHT22;45837;51.076;3.578;2023-08-20T00:52:58;24.70;60.10
59977;DHT22;45837;51.076;3.578;2023-08-20T00:55:24;24.70;60.40
59977;DHT22;45837;51.076;3.578;2023-08-20T00:57:49;24.60;59.90
59977;DHT22;45837;51.076;3.578;2023-08-20T01:00:15;24.70;60.20
59977;DHT22;45837;51.076;3.578;2023-08-20T01:02:41;24.60;60.00
59977;DHT22;45837;51.076;3.578;2023-08-20T01:05:07;24.60;60.40
59977;DHT22;45837;51.076;3.578;2023-08-20T01:07:38;24.60;59.70
59977;DHT22;45837;51.076;3.578;2023-08-20T01:10:11;24.60;59.70
59977;DHT22;45837;51.076;3.578;2023-08-20T01:12:39;24.70;59.60
59977;DHT22;45837;51.076;3.578;2023-08-20T01:15:06;24.70;59.60
59977;DHT22;45837;51.076;3.578;2023-08-20T01:17:31;24.70;60.00
59977;DHT22;45837;51.076;3.578;2023-08-20T01:19:58;24.60;60.40
59977;DHT22;45837;51.076;3.578;2023-08-20T01:27:39;24.60;59.40
59977;DHT22;45837;51.076;3.578;2023-08-20T01:30:08;24.60;59.40
59977;DHT22;45837;51.076;3.578;2023-08-20T01:32:34;24.60;59.70
59977;DHT22;45837;51.076;3.578;2023-08-20T01:35:00;24.60;59.50
59977;DHT22;45837;51.076;3.578;2023-08-20T01:37:26;24.60;59.80
59977;DHT22;45837;51.076;3.578;2023-08-20T01:39:51;24.60;59.80
59977;DHT22;45837;51.076;3.578;2023-08-20T01:42:17;24.60;59.90
59977;DHT22;45837;51.076;3.578;2023-08-20T01:44:45;24.60;59.20
59977;DHT22;45837;51.076;3.578;2023-08-20T01:47:10;24.60;59.70
59977;DHT22;45837;51.076;3.578;2023-08-20T01:49:36;24.60;59.50
59977;DHT22;45837;51.076;3.578;2023-08-20T01:52:02;24.50;59.70
59977;DHT22;45837;51.076;3.578;2023-08-20T01:54:28;24.50;59.00
59977;DHT22;45837;51.076;3.578;2023-08-20T01:56:55;24.50;59.20
59977;DHT22;45837;51.076;3.578;2023-08-20T01:59:21;24.50;59.30
59977;DHT22;45837;51.076;3.578;2023-08-20T02:01:47;24.80;58.90
59977;DHT22;45837;51.076;3.578;2023-08-20T02:04:13;24.50;59.20
59977;DHT22;45837;51.076;3.578;2023-08-20T02:06:38;24.40;59.20
59977;DHT22;45837;51.076;3.578;2023-08-20T02:09:05;24.40;59.10
59977;DHT22;45837;51.076;3.578;2023-08-20T02:11:31;24.40;59.10
59977;DHT22;45837;51.076;3.578;2023-08-20T02:14:04;24.50;58.90
59977;DHT22;45837;51.076;3.578;2023-08-20T02:16:29;24.40;58.60
59977;DHT22;45837;51.076;3.578;2023-08-20T02:18:55;24.40;59.20
59977;DHT22;45837;51.076;3.578;2023-08-20T02:21:21;24.40;59.00
59977;DHT22;45837;51.076;3.578;2023-08-20T02:23:47;24.40;59.10
59977;DHT22;45837;51.076;3.578;2023-08-20T02:26:12;24.40;59.00
59977;DHT22;45837;51.076;3.578;2023-08-20T02:28:38;24.40;59.10
59977;DHT22;45837;51.076;3.578;2023-08-20T02:31:04;24.40;59.10
59977;DHT22;45837;51.076;3.578;2023-08-20T02:33:30;24.40;58.70
59977;DHT22;45837;51.076;3.578;2023-08-20T02:36:00;24.40;59.20
59977;DHT22;45837;51.076;3.578;2023-08-20T02:38:26;24.40;58.80
59977;DHT22;45837;51.076;3.578;2023-08-20T02:40:52;24.40;59.30
59977;DHT22;45837;51.076;3.578;2023-08-20T02:43:18;24.30;59.30
59977;DHT22;45837;51.076;3.578;2023-08-20T02:45:44;24.30;59.40
59977;DHT22;45837;51.076;3.578;2023-08-20T02:48:09;24.30;59.20
59977;DHT22;45837;51.076;3.578;2023-08-20T02:50:35;24.30;58.80
59977;DHT22;45837;51.076;3.578;2023-08-20T02:53:01;24.40;59.30
59977;DHT22;45837;51.076;3.578;2023-08-20T02:55:27;24.30;59.30
59977;DHT22;45837;51.076;3.578;2023-08-20T02:57:53;24.30;58.90
59977;DHT22;45837;51.076;3.578;2023-08-20T03:00:19;24.30;59.70
59977;DHT22;45837;51.076;3.578;2023-08-20T03:02:45;24.30;59.50
59977;DHT22;45837;51.076;3.578;2023-08-20T03:05:11;24.30;59.60
59977;DHT22;45837;51.076;3.578;2023-08-20T03:07:37;24.30;60.20
59977;DHT22;45837;51.076;3.578;2023-08-20T03:10:03;24.30;59.50
59977;DHT22;45837;51.076;3.578;2023-08-20T03:12:29;24.30;59.30
59977;DHT22;45837;51.076;3.578;2023-08-20T03:14:55;24.20;59.10
59977;DHT22;45837;51.076;3.578;2023-08-20T03:17:20;24.20;59.50
59977;DHT22;45837;51.076;3.578;2023-08-20T03:19:56;24.20;59.60
59977;DHT22;45837;51.076;3.578;2023-08-20T03:22:23;24.20;59.00
59977;DHT22;45837;51.076;3.578;2023-08-20T03:24:48;24.20;59.70
59977;DHT22;45837;51.076;3.578;2023-08-20T03:27:15;24.20;59.30
59977;DHT22;45837;51.076;3.578;2023-08-20T03:29:40;24.20;59.10
59977;DHT22;45837;51.076;3.578;2023-08-20T03:32:06;24.20;59.40
59977;DHT22;45837;51.076;3.578;2023-08-20T03:34:32;24.20;59.70
59977;DHT22;45837;51.076;3.578;2023-08-20T03:36:58;24.20;59.70
59977;DHT22;45837;51.076;3.578;2023-08-20T03:39:23;24.20;59.80
59977;DHT22;45837;51.076;3.578;2023-08-20T03:41:52;24.20;59.70
59977;DHT22;45837;51.076;3.578;2023-08-20T03:44:18;24.20;59.10
59977;DHT22;45837;51.076;3.578;2023-08-20T03:46:44;24.10;59.20
59977;DHT22;45837;51.076;3.578;2023-08-20T03:49:11;24.20;59.30
59977;DHT22;45837;51.076;3.578;2023-08-20T03:51:38;24.20;59.70
59977;DHT22;45837;51.076;3.578;2023-08-20T03:54:04;24.20;59.10
59977;DHT22;45837;51.076;3.578;2023-08-20T03:56:30;24.20;59.70
59977;DHT22;45837;51.076;3.578;2023-08-20T03:58:55;23.80;59.30
59977;DHT22;45837;51.076;3.578;2023-08-20T04:01:21;24.20;59.20
59977;DHT22;45837;51.076;3.578;2023-08-20T04:03:47;24.10;59.40
59977;DHT22;45837;51.076;3.578;2023-08-20T04:06:14;24.10;58.60
59977;DHT22;45837;51.076;3.578;2023-08-20T04:08:40;24.10;58.60
59977;DHT22;45837;51.076;3.578;2023-08-20T04:11:06;24.10;58.90
59977;DHT22;45837;51.076;3.578;2023-08-20T04:13:32;24.10;58.20
59977;DHT22;45837;51.076;3.578;2023-08-20T04:15:58;24.10;58.90
59977;DHT22;45837;51.076;3.578;2023-08-20T04:18:24;24.10;59.50
59977;DHT22;45837;51.076;3.578;2023-08-20T04:20:51;24.10;59.00
59977;DHT22;45837;51.076;3.578;2023-08-20T04:23:17;24.00;58.30
59977;DHT22;45837;51.076;3.578;2023-08-20T04:25:43;23.90;58.70
59977;DHT22;45837;51.076;3.578;2023-08-20T04:28:12;24.60;58.60
59977;DHT22;45837;51.076;3.578;2023-08-20T04:30:38;24.00;59.10
59977;DHT22;45837;51.076;3.578;2023-08-20T04:33:05;24.00;59.10
59977;DHT22;45837;51.076;3.578;2023-08-20T04:35:33;24.00;58.40
59977;DHT22;45837;51.076;3.578;2023-08-20T04:37:59;24.00;58.20
59977;DHT22;45837;51.076;3.578;2023-08-20T04:40:26;24.00;58.90
59977;DHT22;45837;51.076;3.578;2023-08-20T04:42:52;24.00;59.30
59977;DHT22;45837;51.076;3.578;2023-08-20T04:45:18;23.90;58.30
59977;DHT22;45837;51.076;3.578;2023-08-20T04:47:46;23.90;58.10
59977;DHT22;45837;51.076;3.578;2023-08-20T04:50:12;23.90;58.20
59977;DHT22;45837;51.076;3.578;2023-08-20T04:52:39;23.90;57.80
59977;DHT22;45837;51.076;3.578;2023-08-20T04:55:05;23.90;57.70
59977;DHT22;45837;51.076;3.578;2023-08-20T04:57:35;23.90;58.00
59977;DHT22;45837;51.076;3.578;2023-08-20T05:00:02;23.90;57.80
59977;DHT22;45837;51.076;3.578;2023-08-20T05:02:39;23.90;57.80
59977;DHT22;45837;51.076;3.578;2023-08-20T05:05:05;23.90;57.90
59977;DHT22;45837;51.076;3.578;2023-08-20T05:07:31;24.00;57.70
59977;DHT22;45837;51.076;3.578;2023-08-20T05:09:58;24.00;57.60
59977;DHT22;45837;51.076;3.578;2023-08-20T05:12:24;24.00;57.60
59977;DHT22;45837;51.076;3.578;2023-08-20T05:14:49;24.00;57.80
59977;DHT22;45837;51.076;3.578;2023-08-20T05:17:15;24.10;57.30
59977;DHT22;45837;51.076;3.578;2023-08-20T05:19:41;24.10;57.50
59977;DHT22;45837;51.076;3.578;2023-08-20T05:22:08;24.10;56.90
59977;DHT22;45837;51.076;3.578;2023-08-20T05:24:35;24.20;57.40
59977;DHT22;45837;51.076;3.578;2023-08-20T05:27:10;24.20;56.70
59977;DHT22;45837;51.076;3.578;2023-08-20T05:29:37;24.20;56.60
59977;DHT22;45837;51.076;3.578;2023-08-20T05:32:02;24.20;58.40
59977;DHT22;45837;51.076;3.578;2023-08-20T05:34:28;24.20;57.90
59977;DHT22;45837;51.076;3.578;2023-08-20T05:36:54;24.20;57.90
59977;DHT22;45837;51.076;3.578;2023-08-20T05:39:20;24.30;57.60
59977;DHT22;45837;51.076;3.578;2023-08-20T05:41:45;24.30;57.80
59977;DHT22;45837;51.076;3.578;2023-08-20T05:44:11;24.30;57.70
59977;DHT22;45837;51.076;3.578;2023-08-20T05:46:37;24.30;57.80
59977;DHT22;45837;51.076;3.578;2023-08-20T05:49:03;24.20;58.10
59977;DHT22;45837;51.076;3.578;2023-08-20T05:51:33;24.00;58.80
59977;DHT22;45837;51.076;3.578;2023-08-20T05:53:59;23.90;59.10
59977;DHT22;45837;51.076;3.578;2023-08-20T05:56:25;23.90;59.40
59977;DHT22;45837;51.076;3.578;2023-08-20T05:58:51;24.00;59.50
59977;DHT22;45837;51.076;3.578;2023-08-20T06:01:17;23.90;59.50
59977;DHT22;45837;51.076;3.578;2023-08-20T06:03:43;24.00;59.80
59977;DHT22;45837;51.076;3.578;2023-08-20T06:06:08;24.00;59.70
59977;DHT22;45837;51.076;3.578;2023-08-20T06:08:34;24.00;59.90
59977;DHT22;45837;51.076;3.578;2023-08-20T06:10:59;24.00;60.10
59977;DHT22;45837;51.076;3.578;2023-08-20T06:13:25;24.10;59.80
59977;DHT22;45837;51.076;3.578;2023-08-20T06:15:51;24.10;59.60
59977;DHT22;45837;51.076;3.578;2023-08-20T06:18:16;24.10;59.60
59977;DHT22;45837;51.076;3.578;2023-08-20T06:20:42;24.10;59.40
59977;DHT22;45837;51.076;3.578;2023-08-20T06:23:08;24.10;59.50
59977;DHT22;45837;51.076;3.578;2023-08-20T06:25:33;24.10;59.60
59977;DHT22;45837;51.076;3.578;2023-08-20T06:27:59;24.20;60.20
59977;DHT22;45837;51.076;3.578;2023-08-20T06:30:25;24.20;59.70
59977;DHT22;45837;51.076;3.578;2023-08-20T06:32:50;24.20;59.90
59977;DHT22;45837;51.076;3.578;2023-08-20T06:35:16;24.20;60.10
59977;DHT22;45837;51.076;3.578;2023-08-20T06:37:42;24.20;59.20
59977;DHT22;45837;51.076;3.578;2023-08-20T06:40:08;24.20;59.50
59977;DHT22;45837;51.076;3.578;2023-08-20T06:42:35;24.20;59.50
59977;DHT22;45837;51.076;3.578;2023-08-20T06:45:01;24.30;59.80
59977;DHT22;45837;51.076;3.578;2023-08-20T06:47:27;24.30;59.70
59977;DHT22;45837;51.076;3.578;2023-08-20T06:49:52;24.30;59.60
59977;DHT22;45837;51.076;3.578;2023-08-20T06:52:18;24.30;60.20
59977;DHT22;45837;51.076;3.578;2023-08-20T06:54:44;24.30;60.20
59977;DHT22;45837;51.076;3.578;2023-08-20T06:57:10;24.40;59.70
59977;DHT22;45837;51.076;3.578;2023-08-20T06:59:35;24.40;59.80
59977;DHT22;45837;51.076;3.578;2023-08-20T07:02:01;24.40;59.80
59977;DHT22;45837;51.076;3.578;2023-08-20T07:04:28;24.40;59.60
59977;DHT22;45837;51.076;3.578;2023-08-20T07:06:54;24.40;59.80
59977;DHT22;45837;51.076;3.578;2023-08-20T07:09:20;24.40;59.70
59977;DHT22;45837;51.076;3.578;2023-08-20T07:11:45;24.40;59.60
59977;DHT22;45837;51.076;3.578;2023-08-20T07:14:11;24.40;59.70
59977;DHT22;45837;51.076;3.578;2023-08-20T07:16:37;24.40;59.70
59977;DHT22;45837;51.076;3.578;2023-08-20T07:19:02;24.40;59.70
59977;DHT22;45837;51.076;3.578;2023-08-20T07:21:28;24.50;59.80
59977;DHT22;45837;51.076;3.578;2023-08-20T07:23:54;24.40;59.50
59977;DHT22;45837;51.076;3.578;2023-08-20T07:26:19;24.50;59.80
59977;DHT22;45837;51.076;3.578;2023-08-20T07:28:45;24.50;59.60
59977;DHT22;45837;51.076;3.578;2023-08-20T07:31:30;24.50;59.00
59977;DHT22;45837;51.076;3.578;2023-08-20T07:33:56;24.60;58.80
59977;DHT22;45837;51.076;3.578;2023-08-20T07:36:23;24.60;58.90
59977;DHT22;45837;51.076;3.578;2023-08-20T07:38:49;24.60;58.80
59977;DHT22;45837;51.076;3.578;2023-08-20T07:41:15;24.60;58.90
59977;DHT22;45837;51.076;3.578;2023-08-20T07:43:41;24.60;59.10
59977;DHT22;45837;51.076;3.578;2023-08-20T07:46:07;24.60;59.50
59977;DHT22;45837;51.076;3.578;2023-08-20T07:48:33;24.60;59.40
59977;DHT22;45837;51.076;3.578;2023-08-20T07:50:59;24.60;59.20
59977;DHT22;45837;51.076;3.578;2023-08-20T07:53:25;24.70;59.30
59977;DHT22;45837;51.076;3.578;2023-08-20T07:55:51;24.60;59.20
59977;DHT22;45837;51.076;3.578;2023-08-20T07:58:17;24.60;59.60
59977;DHT22;45837;51.076;3.578;2023-08-20T08:00:43;24.60;59.70
59977;DHT22;45837;51.076;3.578;2023-08-20T08:03:08;24.60;59.10
59977;DHT22;45837;51.076;3.578;2023-08-20T08:05:35;24.60;58.90
59977;DHT22;45837;51.076;3.578;2023-08-20T08:08:01;24.60;58.70
59977;DHT22;45837;51.076;3.578;2023-08-20T08:10:26;24.70;58.80
59977;DHT22;45837;51.076;3.578;2023-08-20T08:12:52;24.70;58.60
59977;DHT22;45837;51.076;3.578;2023-08-20T08:15:18;24.60;58.40
59977;DHT22;45837;51.076;3.578;2023-08-20T08:17:44;24.60;58.50
59977;DHT22;45837;51.076;3.578;2023-08-20T08:20:09;24.60;58.30
59977;DHT22;45837;51.076;3.578;2023-08-20T08:22:35;24.70;58.70
59977;DHT22;45837;51.076;3.578;2023-08-20T08:25:01;24.60;58.40
59977;DHT22;45837;51.076;3.578;2023-08-20T08:27:26;24.60;58.10
59977;DHT22;45837;51.076;3.578;2023-08-20T08:29:52;24.60;58.20
59977;DHT22;45837;51.076;3.578;2023-08-20T08:32:18;24.60;58.20
59977;DHT22;45837;51.076;3.578;2023-08-20T08:34:43;24.60;58.00
59977;DHT22;45837;51.076;3.578;2023-08-20T08:37:09;24.60;58.40
59977;DHT22;45837;51.076;3.578;2023-08-20T08:39:35;24.60;58.40
59977;DHT22;45837;51.076;3.578;2023-08-20T08:42:01;24.60;58.30
59977;DHT22;45837;51.076;3.578;2023-08-20T08:44:31;24.60;58.00
59977;DHT22;45837;51.076;3.578;2023-08-20T08:46:57;24.60;58.00
59977;DHT22;45837;51.076;3.578;2023-08-20T08:49:23;24.60;58.00
59977;DHT22;45837;51.076;3.578;2023-08-20T08:51:49;24.60;58.00
59977;DHT22;45837;51.076;3.578;2023-08-20T08:54:16;24.60;57.80
59977;DHT22;45837;51.076;3.578;2023-08-20T08:56:42;24.60;57.90
59977;DHT22;45837;51.076;3.578;2023-08-20T08:59:07;24.60;58.40
59977;DHT22;45837;51.076;3.578;2023-08-20T09:01:37;24.60;58.20
59977;DHT22;45837;51.076;3.578;2023-08-20T09:04:03;24.60;57.80
59977;DHT22;45837;51.076;3.578;2023-08-20T09:06:29;24.60;58.30
59977;DHT22;45837;51.076;3.578;2023-08-20T09:09:09;24.70;57.80
59977;DHT22;45837;51.076;3.578;2023-08-20T09:11:35;24.60;58.50
59977;DHT22;45837;51.076;3.578;2023-08-20T09:14:01;24.70;58.40
59977;DHT22;45837;51.076;3.578;2023-08-20T09:16:26;24.70;58.50
59977;DHT22;45837;51.076;3.578;2023-08-20T09:18:54;24.70;58.10
59977;DHT22;45837;51.076;3.578;2023-08-20T09:21:20;24.70;59.00
59977;DHT22;45837;51.076;3.578;2023-08-20T09:23:53;24.70;58.10
59977;DHT22;45837;51.076;3.578;2023-08-20T09:26:19;24.70;58.10
59977;DHT22;45837;51.076;3.578;2023-08-20T09:28:45;24.70;58.10
59977;DHT22;45837;51.076;3.578;2023-08-20T09:31:11;24.70;57.70
59977;DHT22;45837;51.076;3.578;2023-08-20T09:33:39;24.70;57.50
59977;DHT22;45837;51.076;3.578;2023-08-20T09:36:13;24.70;57.80
59977;DHT22;45837;51.076;3.578;2023-08-20T09:38:39;24.70;58.10
59977;DHT22;45837;51.076;3.578;2023-08-20T09:41:04;24.70;58.40
59977;DHT22;45837;51.076;3.578;2023-08-20T09:43:30;24.70;58.30
59977;DHT22;45837;51.076;3.578;2023-08-20T09:45:57;24.70;57.80
59977;DHT22;45837;51.076;3.578;2023-08-20T09:48:27;24.70;57.80
59977;DHT22;45837;51.076;3.578;2023-08-20T09:50:54;24.70;58.30
59977;DHT22;45837;51.076;3.578;2023-08-20T09:53:35;24.70;58.20
59977;DHT22;45837;51.076;3.578;2023-08-20T09:56:09;24.80;58.00
59977;DHT22;45837;51.076;3.578;2023-08-20T09:58:36;24.60;57.70
59977;DHT22;45837;51.076;3.578;2023-08-20T10:01:03;24.80;58.10
59977;DHT22;45837;51.076;3.578;2023-08-20T10:03:29;24.80;57.90
59977;DHT22;45837;51.076;3.578;2023-08-20T10:05:55;24.80;58.30
59977;DHT22;45837;51.076;3.578;2023-08-20T10:08:22;24.80;57.90
59977;DHT22;45837;51.076;3.578;2023-08-20T10:10:47;24.80;58.10
59977;DHT22;45837;51.076;3.578;2023-08-20T10:13:13;24.90;58.30
59977;DHT22;45837;51.076;3.578;2023-08-20T10:15:39;24.90;58.00
59977;DHT22;45837;51.076;3.578;2023-08-20T10:18:07;24.90;58.00
59977;DHT22;45837;51.076;3.578;2023-08-20T10:20:33;24.80;58.30
59977;DHT22;45837;51.076;3.578;2023-08-20T10:23:02;24.90;58.20
59977;DHT22;45837;51.076;3.578;2023-08-20T10:25:29;24.90;58.20
59977;DHT22;45837;51.076;3.578;2023-08-20T10:28:10;24.90;58.20
59977;DHT22;45837;51.076;3.578;2023-08-20T10:30:36;24.90;57.80
59977;DHT22;45837;51.076;3.578;2023-08-20T10:33:02;24.90;58.00
59977;DHT22;45837;51.076;3.578;2023-08-20T10:35:46;24.90;57.50
59977;DHT22;45837;51.076;3.578;2023-08-20T10:38:12;24.90;57.80
59977;DHT22;45837;51.076;3.578;2023-08-20T10:40:57;24.90;57.60
59977;DHT22;45837;51.076;3.578;2023-08-20T10:46:01;24.90;57.70
59977;DHT22;45837;51.076;3.578;2023-08-20T10:48:27;24.90;57.40
59977;DHT22;45837;51.076;3.578;2023-08-20T10:50:53;24.90;57.80
59977;DHT22;45837;51.076;3.578;2023-08-20T10:53:21;24.90;58.40
59977;DHT22;45837;51.076;3.578;2023-08-20T10:55:50;24.90;58.10
59977;DHT22;45837;51.076;3.578;2023-08-20T10:58:17;24.90;57.80
59977;DHT22;45837;51.076;3.578;2023-08-20T11:00:43;24.90;58.10
59977;DHT22;45837;51.076;3.578;2023-08-20T11:03:08;24.90;58.20
59977;DHT22;45837;51.076;3.578;2023-08-20T11:05:34;24.90;58.10
59977;DHT22;45837;51.076;3.578;2023-08-20T11:08:01;24.90;58.10
59977;DHT22;45837;51.076;3.578;2023-08-20T11:10:28;24.90;58.30
59977;DHT22;45837;51.076;3.578;2023-08-20T11:12:54;24.90;58.00
59977;DHT22;45837;51.076;3.578;2023-08-20T11:15:20;24.90;58.30
59977;DHT22;45837;51.076;3.578;2023-08-20T11:17:47;25.00;58.30
59977;DHT22;45837;51.076;3.578;2023-08-20T11:20:14;25.00;58.10
59977;DHT22;45837;51.076;3.578;2023-08-20T11:22:40;25.00;58.10
59977;DHT22;45837;51.076;3.578;2023-08-20T11:25:09;25.00;58.20
59977;DHT22;45837;51.076;3.578;2023-08-20T11:27:35;25.00;58.20
59977;DHT22;45837;51.076;3.578;2023-08-20T11:30:03;25.00;58.80
59977;DHT22;45837;51.076;3.578;2023-08-20T11:32:29;25.00;58.20
59977;DHT22;45837;51.076;3.578;2023-08-20T11:34:55;25.00;58.40
59977;DHT22;45837;51.076;3.578;2023-08-20T11:37:21;25.00;58.60
59977;DHT22;45837;51.076;3.578;2023-08-20T11:39:50;25.00;58.30
59977;DHT22;45837;51.076;3.578;2023-08-20T11:42:16;25.00;58.10
59977;DHT22;45837;51.076;3.578;2023-08-20T11:44:43;25.00;58.10
59977;DHT22;45837;51.076;3.578;2023-08-20T11:47:13;25.00;58.20
59977;DHT22;45837;51.076;3.578;2023-08-20T11:49:39;25.10;58.40
59977;DHT22;45837;51.076;3.578;2023-08-20T11:52:04;25.10;58.90
59977;DHT22;45837;51.076;3.578;2023-08-20T11:54:31;25.10;58.80
59977;DHT22;45837;51.076;3.578;2023-08-20T11:57:01;25.10;58.80
59977;DHT22;45837;51.076;3.578;2023-08-20T11:59:27;25.10;58.80
59977;DHT22;45837;51.076;3.578;2023-08-20T12:01:59;25.10;59.30
59977;DHT22;45837;51.076;3.578;2023-08-20T12:04:26;25.10;58.60
59977;DHT22;45837;51.076;3.578;2023-08-20T12:09:36;25.10;58.60
59977;DHT22;45837;51.076;3.578;2023-08-20T12:12:02;25.10;59.00
59977;DHT22;45837;51.076;3.578;2023-08-20T12:14:28;25.20;58.90
59977;DHT22;45837;51.076;3.578;2023-08-20T12:16:54;25.10;59.10
59977;DHT22;45837;51.076;3.578;2023-08-20T12:19:20;25.20;59.00
59977;DHT22;45837;51.076;3.578;2023-08-20T12:21:45;25.20;59.30
59977;DHT22;45837;51.076;3.578;2023-08-20T12:24:11;25.10;59.30
59977;DHT22;45837;51.076;3.578;2023-08-20T12:26:37;25.20;59.50
59977;DHT22;45837;51.076;3.578;2023-08-20T12:29:06;25.20;59.70
59977;DHT22;45837;51.076;3.578;2023-08-20T12:31:45;25.20;59.10
59977;DHT22;45837;51.076;3.578;2023-08-20T12:34:24;25.20;59.20
59977;DHT22;45837;51.076;3.578;2023-08-20T12:37:04;25.20;59.10
59977;DHT22;45837;51.076;3.578;2023-08-20T12:39:44;25.30;58.90
59977;DHT22;45837;51.076;3.578;2023-08-20T12:42:24;25.30;58.90
59977;DHT22;45837;51.076;3.578;2023-08-20T12:45:07;25.30;58.90
59977;DHT22;45837;51.076;3.578;2023-08-20T12:47:45;25.30;58.50
59977;DHT22;45837;51.076;3.578;2023-08-20T12:50:25;25.30;58.40
59977;DHT22;45837;51.076;3.578;2023-08-20T12:53:06;25.30;58.30
59977;DHT22;45837;51.076;3.578;2023-08-20T12:55:50;25.30;58.30
59977;DHT22;45837;51.076;3.578;2023-08-20T12:58:33;25.30;58.30
59977;DHT22;45837;51.076;3.578;2023-08-20T13:01:07;25.30;58.50
59977;DHT22;45837;51.076;3.578;2023-08-20T13:03:42;25.30;58.40
59977;DHT22;45837;51.076;3.578;2023-08-20T13:06:20;25.30;58.30
59977;DHT22;45837;51.076;3.578;2023-08-20T13:08:55;25.30;58.30
59977;DHT22;45837;51.076;3.578;2023-08-20T13:11:42;25.30;58.20
59977;DHT22;45837;51.076;3.578;2023-08-20T13:14:18;25.30;58.10
59977;DHT22;45837;51.076;3.578;2023-08-20T13:16:58;25.30;58.00
59977;DHT22;45837;51.076;3.578;2023-08-20T13:19:33;25.40;58.00
59977;DHT22;45837;51.076;3.578;2023-08-20T13:21:59;25.30;58.30
59977;DHT22;45837;51.076;3.578;2023-08-20T13:24:25;25.30;58.10
59977;DHT22;45837;51.076;3.578;2023-08-20T13:26:51;25.40;58.40
59977;DHT22;45837;51.076;3.578;2023-08-20T13:29:17;25.40;57.90
59977;DHT22;45837;51.076;3.578;2023-08-20T13:31:42;25.40;58.10
59977;DHT22;45837;51.076;3.578;2023-08-20T13:34:09;25.40;58.00
59977;DHT22;45837;51.076;3.578;2023-08-20T13:36:35;26.60;58.60
59977;DHT22;45837;51.076;3.578;2023-08-20T13:39:00;25.30;57.00
59977;DHT22;45837;51.076;3.578;2023-08-20T13:41:27;25.40;57.00
59977;DHT22;45837;51.076;3.578;2023-08-20T13:43:52;25.40;57.30
59977;DHT22;45837;51.076;3.578;2023-08-20T13:46:19;25.40;57.30
59977;DHT22;45837;51.076;3.578;2023-08-20T13:48:44;25.40;57.10
59977;DHT22;45837;51.076;3.578;2023-08-20T13:51:10;25.40;57.40
59977;DHT22;45837;51.076;3.578;2023-08-20T13:53:36;25.50;57.40
59977;DHT22;45837;51.076;3.578;2023-08-20T13:56:02;25.40;58.00
59977;DHT22;45837;51.076;3.578;2023-08-20T13:58:28;25.40;58.00
59977;DHT22;45837;51.076;3.578;2023-08-20T14:00:53;25.50;57.80
59977;DHT22;45837;51.076;3.578;2023-08-20T14:03:19;25.40;58.10
59977;DHT22;45837;51.076;3.578;2023-08-20T14:05:45;25.40;58.30
59977;DHT22;45837;51.076;3.578;2023-08-20T14:08:11;25.40;58.40
59977;DHT22;45837;51.076;3.578;2023-08-20T14:10:36;25.40;58.50
59977;DHT22;45837;51.076;3.578;2023-08-20T14:13:02;25.40;58.90
59977;DHT22;45837;51.076;3.578;2023-08-20T14:15:28;25.50;58.90
59977;DHT22;45837;51.076;3.578;2023-08-20T14:17:54;25.40;59.10
59977;DHT22;45837;51.076;3.578;2023-08-20T14:20:20;25.40;59.10
59977;DHT22;45837;51.076;3.578;2023-08-20T14:22:46;25.40;59.30
59977;DHT22;45837;51.076;3.578;2023-08-20T14:25:11;25.40;59.20
59977;DHT22;45837;51.076;3.578;2023-08-20T14:27:37;25.50;59.30
59977;DHT22;45837;51.076;3.578;2023-08-20T14:30:04;25.20;59.20
59977;DHT22;45837;51.076;3.578;2023-08-20T14:32:31;25.50;59.40
59977;DHT22;45837;51.076;3.578;2023-08-20T14:34:56;25.50;59.70
59977;DHT22;45837;51.076;3.578;2023-08-20T14:37:22;25.40;59.70
59977;DHT22;45837;51.076;3.578;2023-08-20T14:39:49;25.50;59.60
59977;DHT22;45837;51.076;3.578;2023-08-20T14:42:14;25.50;59.50
59977;DHT22;45837;51.076;3.578;2023-08-20T14:44:40;25.50;59.70
59977;DHT22;45837;51.076;3.578;2023-08-20T14:47:06;25.50;59.60
59977;DHT22;45837;51.076;3.578;2023-08-20T14:49:32;25.50;59.60
59977;DHT22;45837;51.076;3.578;2023-08-20T14:51:58;25.50;59.80
59977;DHT22;45837;51.076;3.578;2023-08-20T14:54:25;25.50;59.70
59977;DHT22;45837;51.076;3.578;2023-08-20T14:56:50;25.50;59.90
59977;DHT22;45837;51.076;3.578;2023-08-20T14:59:16;25.50;59.90
59977;DHT22;45837;51.076;3.578;2023-08-20T15:01:42;25.50;60.40
59977;DHT22;45837;51.076;3.578;2023-08-20T15:04:07;25.50;60.70
59977;DHT22;45837;51.076;3.578;2023-08-20T15:06:33;25.50;60.50
59977;DHT22;45837;51.076;3.578;2023-08-20T15:08:59;25.50;60.50
59977;DHT22;45837;51.076;3.578;2023-08-20T15:11:24;25.60;60.80
59977;DHT22;45837;51.076;3.578;2023-08-20T15:13:50;25.60;60.10
59977;DHT22;45837;51.076;3.578;2023-08-20T15:16:17;25.50;59.30
59977;DHT22;45837;51.076;3.578;2023-08-20T15:18:43;25.60;59.20
59977;DHT22;45837;51.076;3.578;2023-08-20T15:21:08;25.60;59.10
59977;DHT22;45837;51.076;3.578;2023-08-20T15:23:36;25.50;59.10
59977;DHT22;45837;51.076;3.578;2023-08-20T15:26:03;25.60;59.00
59977;DHT22;45837;51.076;3.578;2023-08-20T15:28:29;25.60;59.20
59977;DHT22;45837;51.076;3.578;2023-08-20T15:30:55;25.60;58.90
59977;DHT22;45837;51.076;3.578;2023-08-20T15:33:21;25.60;58.40
59977;DHT22;45837;51.076;3.578;2023-08-20T15:35:47;25.60;59.20
59977;DHT22;45837;51.076;3.578;2023-08-20T15:38:13;25.60;59.20
59977;DHT22;45837;51.076;3.578;2023-08-20T15:40:38;25.60;59.20